sensor_id;sensor_type;location;lat;lon;timestamp;P1;durP1;ratioP1;P2;durP2;ratioP2
12135;SDS011;6131;56.420;15.548;2023-03-14T00:01:54;17.67;;;3.73;;
12135;SDS011;6131;56.420;15.548;2023-03-14T00:04:20;19.83;;;4.37;;
12135;SDS011;6131;56.420;15.548;2023-03-14T00:06:46;24.63;;;4.60;;
12135;SDS011;6131;56.420;15.548;2023-03-14T00:09:13;23.83;;;4.53;;
12135;SDS011;6131;56.420;15.548;2023-03-14T00:11:39;17.80;;;3.70;;
12135;SDS011;6131;56.420;15.548;2023-03-14T00:14:05;20.83;;;4.27;;
12135;SDS011;6131;56.420;15.548;2023-03-14T00:16:32;24.13;;;4.43;;
12135;SDS011;6131;56.420;15.548;2023-03-14T00:18:58;21.70;;;3.77;;
12135;SDS011;6131;56.420;15.548;2023-03-14T00:21:24;20.63;;;4.83;;
12135;SDS011;6131;56.420;15.548;2023-03-14T00:23:51;24.23;;;4.47;;
12135;SDS011;6131;56.420;15.548;2023-03-14T00:26:18;19.00;;;4.03;;
12135;SDS011;6131;56.420;15.548;2023-03-14T00:28:44;20.27;;;4.43;;
12135;SDS011;6131;56.420;15.548;2023-03-14T00:31:11;18.53;;;4.27;;
12135;SDS011;6131;56.420;15.548;2023-03-14T00:33:37;22.23;;;4.23;;
12135;SDS011;6131;56.420;15.548;2023-03-14T00:36:04;19.03;;;4.00;;
12135;SDS011;6131;56.420;15.548;2023-03-14T00:38:31;22.07;;;3.73;;
12135;SDS011;6131;56.420;15.548;2023-03-14T00:40:57;19.80;;;4.20;;
12135;SDS011;6131;56.420;15.548;2023-03-14T00:43:23;19.40;;;3.87;;
12135;SDS011;6131;56.420;15.548;2023-03-14T00:45:50;22.87;;;4.07;;
12135;SDS011;6131;56.420;15.548;2023-03-14T00:48:17;21.43;;;4.20;;
12135;SDS011;6131;56.420;15.548;2023-03-14T00:50:44;19.33;;;4.60;;
12135;SDS011;6131;56.420;15.548;2023-03-14T00:53:10;23.73;;;4.13;;
12135;SDS011;6131;56.420;15.548;2023-03-14T00:55:38;22.23;;;4.63;;
12135;SDS011;6131;56.420;15.548;2023-03-14T00:58:04;18.50;;;3.93;;
12135;SDS011;6131;56.420;15.548;2023-03-14T01:00:30;25.60;;;4.83;;
12135;SDS011;6131;56.420;15.548;2023-03-14T01:02:56;22.90;;;4.27;;
12135;SDS011;6131;56.420;15.548;2023-03-14T01:05:22;21.13;;;4.13;;
12135;SDS011;6131;56.420;15.548;2023-03-14T01:07:48;18.87;;;3.70;;
12135;SDS011;6131;56.420;15.548;2023-03-14T01:10:15;21.47;;;4.07;;
12135;SDS011;6131;56.420;15.548;2023-03-14T01:12:41;27.07;;;5.27;;
12135;SDS011;6131;56.420;15.548;2023-03-14T01:15:07;22.73;;;4.27;;
12135;SDS011;6131;56.420;15.548;2023-03-14T01:17:35;25.43;;;4.03;;
12135;SDS011;6131;56.420;15.548;2023-03-14T01:20:03;25.73;;;5.03;;
12135;SDS011;6131;56.420;15.548;2023-03-14T01:22:29;23.63;;;4.43;;
12135;SDS011;6131;56.420;15.548;2023-03-14T01:24:55;27.63;;;5.20;;
12135;SDS011;6131;56.420;15.548;2023-03-14T01:27:21;22.73;;;4.00;;
12135;SDS011;6131;56.420;15.548;2023-03-14T01:29:47;29.10;;;4.87;;
12135;SDS011;6131;56.420;15.548;2023-03-14T01:32:13;24.53;;;4.47;;
12135;SDS011;6131;56.420;15.548;2023-03-14T01:34:39;23.63;;;4.23;;
12135;SDS011;6131;56.420;15.548;2023-03-14T01:37:05;22.83;;;4.33;;
12135;SDS011;6131;56.420;15.548;2023-03-14T01:39:32;23.67;;;4.50;;
12135;SDS011;6131;56.420;15.548;2023-03-14T01:41:59;19.73;;;4.60;;
12135;SDS011;6131;56.420;15.548;2023-03-14T01:44:25;18.17;;;4.77;;
12135;SDS011;6131;56.420;15.548;2023-03-14T01:46:51;21.17;;;4.53;;
12135;SDS011;6131;56.420;15.548;2023-03-14T01:54:21;23.50;;;4.40;;
12135;SDS011;6131;56.420;15.548;2023-03-14T01:56:57;30.00;;;4.13;;
12135;SDS011;6131;56.420;15.548;2023-03-14T01:59:24;18.90;;;3.50;;
12135;SDS011;6131;56.420;15.548;2023-03-14T02:01:50;23.87;;;4.33;;
12135;SDS011;6131;56.420;15.548;2023-03-14T02:04:16;22.80;;;4.57;;
12135;SDS011;6131;56.420;15.548;2023-03-14T02:06:50;25.80;;;4.47;;
12135;SDS011;6131;56.420;15.548;2023-03-14T02:09:17;24.30;;;4.63;;
12135;SDS011;6131;56.420;15.548;2023-03-14T02:11:44;25.73;;;4.50;;
12135;SDS011;6131;56.420;15.548;2023-03-14T02:14:13;23.40;;;4.07;;
12135;SDS011;6131;56.420;15.548;2023-03-14T02:16:41;19.47;;;4.30;;
12135;SDS011;6131;56.420;15.548;2023-03-14T02:19:07;23.53;;;3.73;;
12135;SDS011;6131;56.420;15.548;2023-03-14T02:21:38;17.57;;;3.73;;
12135;SDS011;6131;56.420;15.548;2023-03-14T02:24:19;20.20;;;4.60;;
12135;SDS011;6131;56.420;15.548;2023-03-14T02:29:32;22.83;;;4.07;;
12135;SDS011;6131;56.420;15.548;2023-03-14T02:31:59;25.17;;;4.30;;
12135;SDS011;6131;56.420;15.548;2023-03-14T02:34:25;16.83;;;3.73;;
12135;SDS011;6131;56.420;15.548;2023-03-14T02:36:51;16.93;;;4.10;;
12135;SDS011;6131;56.420;15.548;2023-03-14T02:39:19;16.97;;;5.00;;
12135;SDS011;6131;56.420;15.548;2023-03-14T02:41:48;22.20;;;4.50;;
12135;SDS011;6131;56.420;15.548;2023-03-14T02:44:14;13.07;;;3.80;;
12135;SDS011;6131;56.420;15.548;2023-03-14T02:46:40;24.40;;;4.10;;
12135;SDS011;6131;56.420;15.548;2023-03-14T02:49:07;16.77;;;3.60;;
12135;SDS011;6131;56.420;15.548;2023-03-14T02:51:34;18.93;;;4.33;;
12135;SDS011;6131;56.420;15.548;2023-03-14T02:54:01;22.00;;;3.80;;
12135;SDS011;6131;56.420;15.548;2023-03-14T02:56:27;18.77;;;4.10;;
12135;SDS011;6131;56.420;15.548;2023-03-14T02:58:52;18.77;;;3.53;;
12135;SDS011;6131;56.420;15.548;2023-03-14T03:01:18;26.63;;;4.10;;
12135;SDS011;6131;56.420;15.548;2023-03-14T03:03:44;19.50;;;3.70;;
12135;SDS011;6131;56.420;15.548;2023-03-14T03:06:11;23.03;;;4.03;;
12135;SDS011;6131;56.420;15.548;2023-03-14T03:08:37;18.40;;;3.50;;
12135;SDS011;6131;56.420;15.548;2023-03-14T03:11:03;15.73;;;3.77;;
12135;SDS011;6131;56.420;15.548;2023-03-14T03:13:29;17.60;;;3.57;;
12135;SDS011;6131;56.420;15.548;2023-03-14T03:15:55;17.77;;;3.90;;
12135;SDS011;6131;56.420;15.548;2023-03-14T03:18:21;19.23;;;3.97;;
12135;SDS011;6131;56.420;15.548;2023-03-14T03:20:47;18.77;;;3.23;;
12135;SDS011;6131;56.420;15.548;2023-03-14T03:23:13;20.80;;;3.37;;
12135;SDS011;6131;56.420;15.548;2023-03-14T03:25:40;21.30;;;4.27;;
12135;SDS011;6131;56.420;15.548;2023-03-14T03:28:06;13.33;;;3.57;;
12135;SDS011;6131;56.420;15.548;2023-03-14T03:30:42;25.53;;;4.00;;
12135;SDS011;6131;56.420;15.548;2023-03-14T03:33:08;14.87;;;3.63;;
12135;SDS011;6131;56.420;15.548;2023-03-14T03:35:35;21.17;;;4.00;;
12135;SDS011;6131;56.420;15.548;2023-03-14T03:38:00;24.67;;;3.63;;
12135;SDS011;6131;56.420;15.548;2023-03-14T03:40:26;19.57;;;3.87;;
12135;SDS011;6131;56.420;15.548;2023-03-14T03:42:52;16.50;;;3.40;;
12135;SDS011;6131;56.420;15.548;2023-03-14T03:45:18;14.87;;;3.17;;
12135;SDS011;6131;56.420;15.548;2023-03-14T03:47:44;17.70;;;3.10;;
12135;SDS011;6131;56.420;15.548;2023-03-14T03:50:10;19.83;;;3.77;;
12135;SDS011;6131;56.420;15.548;2023-03-14T03:52:36;18.33;;;3.43;;
12135;SDS011;6131;56.420;15.548;2023-03-14T03:55:02;15.10;;;2.93;;
12135;SDS011;6131;56.420;15.548;2023-03-14T03:57:29;13.07;;;3.43;;
12135;SDS011;6131;56.420;15.548;2023-03-14T03:59:55;17.83;;;3.87;;
12135;SDS011;6131;56.420;15.548;2023-03-14T04:02:21;20.23;;;3.20;;
12135;SDS011;6131;56.420;15.548;2023-03-14T04:04:47;14.90;;;3.30;;
12135;SDS011;6131;56.420;15.548;2023-03-14T04:07:12;16.77;;;3.97;;
12135;SDS011;6131;56.420;15.548;2023-03-14T04:09:39;20.63;;;3.57;;
12135;SDS011;6131;56.420;15.548;2023-03-14T04:12:05;20.70;;;3.50;;
12135;SDS011;6131;56.420;15.548;2023-03-14T04:14:32;17.57;;;3.70;;
12135;SDS011;6131;56.420;15.548;2023-03-14T04:16:58;23.43;;;3.87;;
12135;SDS011;6131;56.420;15.548;2023-03-14T04:19:24;17.50;;;3.20;;
12135;SDS011;6131;56.420;15.548;2023-03-14T04:21:50;18.13;;;3.13;;
12135;SDS011;6131;56.420;15.548;2023-03-14T04:24:16;20.80;;;3.80;;
12135;SDS011;6131;56.420;15.548;2023-03-14T04:26:42;21.80;;;3.63;;
12135;SDS011;6131;56.420;15.548;2023-03-14T04:29:08;16.70;;;3.73;;
12135;SDS011;6131;56.420;15.548;2023-03-14T04:31:34;16.43;;;3.53;;
12135;SDS011;6131;56.420;15.548;2023-03-14T04:34:00;15.57;;;3.30;;
12135;SDS011;6131;56.420;15.548;2023-03-14T04:36:26;14.10;;;3.00;;
12135;SDS011;6131;56.420;15.548;2023-03-14T04:38:52;17.47;;;3.60;;
12135;SDS011;6131;56.420;15.548;2023-03-14T04:41:18;14.43;;;3.83;;
12135;SDS011;6131;56.420;15.548;2023-03-14T04:43:44;16.90;;;3.20;;
12135;SDS011;6131;56.420;15.548;2023-03-14T04:46:11;17.10;;;3.30;;
12135;SDS011;6131;56.420;15.548;2023-03-14T04:48:38;12.57;;;3.50;;
12135;SDS011;6131;56.420;15.548;2023-03-14T04:51:04;18.83;;;4.03;;
12135;SDS011;6131;56.420;15.548;2023-03-14T04:53:30;15.40;;;3.10;;
12135;SDS011;6131;56.420;15.548;2023-03-14T04:55:56;17.57;;;3.10;;
12135;SDS011;6131;56.420;15.548;2023-03-14T04:58:22;18.47;;;3.40;;
12135;SDS011;6131;56.420;15.548;2023-03-14T05:00:49;14.90;;;3.00;;
12135;SDS011;6131;56.420;15.548;2023-03-14T05:03:15;13.37;;;2.70;;
12135;SDS011;6131;56.420;15.548;2023-03-14T05:05:42;14.90;;;3.00;;
12135;SDS011;6131;56.420;15.548;2023-03-14T05:08:08;12.03;;;3.00;;
12135;SDS011;6131;56.420;15.548;2023-03-14T05:10:34;19.10;;;3.63;;
12135;SDS011;6131;56.420;15.548;2023-03-14T05:13:00;15.83;;;3.43;;
12135;SDS011;6131;56.420;15.548;2023-03-14T05:15:26;17.47;;;3.10;;
12135;SDS011;6131;56.420;15.548;2023-03-14T05:17:53;15.77;;;3.33;;
12135;SDS011;6131;56.420;15.548;2023-03-14T05:20:19;16.70;;;3.30;;
12135;SDS011;6131;56.420;15.548;2023-03-14T05:22:45;14.03;;;3.33;;
12135;SDS011;6131;56.420;15.548;2023-03-14T05:25:11;17.10;;;3.23;;
12135;SDS011;6131;56.420;15.548;2023-03-14T05:27:37;12.23;;;2.73;;
12135;SDS011;6131;56.420;15.548;2023-03-14T05:30:04;14.53;;;3.20;;
12135;SDS011;6131;56.420;15.548;2023-03-14T05:32:31;18.40;;;3.27;;
12135;SDS011;6131;56.420;15.548;2023-03-14T05:34:57;15.00;;;3.20;;
12135;SDS011;6131;56.420;15.548;2023-03-14T05:37:27;13.40;;;2.67;;
12135;SDS011;6131;56.420;15.548;2023-03-14T05:39:53;19.60;;;3.47;;
12135;SDS011;6131;56.420;15.548;2023-03-14T05:42:19;16.10;;;3.67;;
12135;SDS011;6131;56.420;15.548;2023-03-14T05:44:45;17.50;;;3.10;;
12135;SDS011;6131;56.420;15.548;2023-03-14T05:47:11;16.77;;;3.20;;
12135;SDS011;6131;56.420;15.548;2023-03-14T05:49:37;14.20;;;3.17;;
12135;SDS011;6131;56.420;15.548;2023-03-14T05:52:03;13.80;;;3.47;;
12135;SDS011;6131;56.420;15.548;2023-03-14T05:54:29;17.27;;;3.33;;
12135;SDS011;6131;56.420;15.548;2023-03-14T05:56:55;16.83;;;3.03;;
12135;SDS011;6131;56.420;15.548;2023-03-14T05:59:21;17.57;;;3.37;;
12135;SDS011;6131;56.420;15.548;2023-03-14T06:01:47;12.17;;;2.90;;
12135;SDS011;6131;56.420;15.548;2023-03-14T06:04:13;14.20;;;3.17;;
12135;SDS011;6131;56.420;15.548;2023-03-14T06:06:39;14.87;;;3.30;;
12135;SDS011;6131;56.420;15.548;2023-03-14T06:09:05;17.30;;;3.10;;
12135;SDS011;6131;56.420;15.548;2023-03-14T06:11:31;14.93;;;3.23;;
12135;SDS011;6131;56.420;15.548;2023-03-14T06:13:57;14.30;;;3.17;;
12135;SDS011;6131;56.420;15.548;2023-03-14T06:16:23;6.80;;;2.60;;
12135;SDS011;6131;56.420;15.548;2023-03-14T06:18:49;14.73;;;3.80;;
12135;SDS011;6131;56.420;15.548;2023-03-14T06:21:17;12.80;;;2.67;;
12135;SDS011;6131;56.420;15.548;2023-03-14T06:23:43;14.80;;;3.00;;
12135;SDS011;6131;56.420;15.548;2023-03-14T06:26:09;13.47;;;2.97;;
12135;SDS011;6131;56.420;15.548;2023-03-14T06:28:36;13.87;;;3.07;;
12135;SDS011;6131;56.420;15.548;2023-03-14T06:31:02;10.63;;;2.40;;
12135;SDS011;6131;56.420;15.548;2023-03-14T06:33:28;16.43;;;3.47;;
12135;SDS011;6131;56.420;15.548;2023-03-14T06:35:54;14.43;;;3.20;;
12135;SDS011;6131;56.420;15.548;2023-03-14T06:38:20;10.23;;;2.87;;
12135;SDS011;6131;56.420;15.548;2023-03-14T06:40:46;11.27;;;2.70;;
12135;SDS011;6131;56.420;15.548;2023-03-14T06:43:12;12.47;;;2.73;;
12135;SDS011;6131;56.420;15.548;2023-03-14T06:45:38;8.60;;;2.50;;
12135;SDS011;6131;56.420;15.548;2023-03-14T06:48:04;10.13;;;2.80;;
12135;SDS011;6131;56.420;15.548;2023-03-14T06:50:30;13.27;;;2.77;;
12135;SDS011;6131;56.420;15.548;2023-03-14T06:52:56;11.63;;;2.83;;
12135;SDS011;6131;56.420;15.548;2023-03-14T06:55:22;14.70;;;3.00;;
12135;SDS011;6131;56.420;15.548;2023-03-14T06:57:48;11.93;;;3.40;;
12135;SDS011;6131;56.420;15.548;2023-03-14T07:00:14;10.67;;;2.80;;
12135;SDS011;6131;56.420;15.548;2023-03-14T07:02:40;11.37;;;2.90;;
12135;SDS011;6131;56.420;15.548;2023-03-14T07:05:07;12.63;;;3.00;;
12135;SDS011;6131;56.420;15.548;2023-03-14T07:07:35;11.03;;;2.83;;
12135;SDS011;6131;56.420;15.548;2023-03-14T07:10:02;14.33;;;3.40;;
12135;SDS011;6131;56.420;15.548;2023-03-14T07:12:28;7.13;;;2.53;;
12135;SDS011;6131;56.420;15.548;2023-03-14T07:14:54;11.90;;;3.00;;
12135;SDS011;6131;56.420;15.548;2023-03-14T07:17:20;9.33;;;2.57;;
12135;SDS011;6131;56.420;15.548;2023-03-14T07:19:46;12.20;;;2.70;;
12135;SDS011;6131;56.420;15.548;2023-03-14T07:22:12;10.10;;;2.33;;
12135;SDS011;6131;56.420;15.548;2023-03-14T07:24:38;12.87;;;3.00;;
12135;SDS011;6131;56.420;15.548;2023-03-14T07:27:04;10.13;;;2.77;;
12135;SDS011;6131;56.420;15.548;2023-03-14T07:29:30;11.73;;;2.83;;
12135;SDS011;6131;56.420;15.548;2023-03-14T07:31:56;11.97;;;2.30;;
12135;SDS011;6131;56.420;15.548;2023-03-14T07:34:22;10.23;;;2.90;;
12135;SDS011;6131;56.420;15.548;2023-03-14T07:36:48;11.33;;;2.40;;
12135;SDS011;6131;56.420;15.548;2023-03-14T07:39:14;9.03;;;2.30;;
12135;SDS011;6131;56.420;15.548;2023-03-14T07:41:40;10.40;;;2.40;;
12135;SDS011;6131;56.420;15.548;2023-03-14T07:44:06;11.50;;;2.67;;
12135;SDS011;6131;56.420;15.548;2023-03-14T07:46:32;9.00;;;2.50;;
12135;SDS011;6131;56.420;15.548;2023-03-14T07:48:58;10.93;;;2.80;;
12135;SDS011;6131;56.420;15.548;2023-03-14T07:51:24;8.87;;;2.60;;
12135;SDS011;6131;56.420;15.548;2023-03-14T07:53:50;11.37;;;2.90;;
12135;SDS011;6131;56.420;15.548;2023-03-14T07:56:16;10.80;;;2.30;;
12135;SDS011;6131;56.420;15.548;2023-03-14T07:58:43;12.53;;;2.50;;
12135;SDS011;6131;56.420;15.548;2023-03-14T08:01:09;9.37;;;2.50;;
12135;SDS011;6131;56.420;15.548;2023-03-14T08:03:35;10.73;;;2.33;;
12135;SDS011;6131;56.420;15.548;2023-03-14T08:06:01;11.33;;;2.70;;
12135;SDS011;6131;56.420;15.548;2023-03-14T08:08:27;12.30;;;2.60;;
12135;SDS011;6131;56.420;15.548;2023-03-14T08:10:53;11.97;;;2.90;;
12135;SDS011;6131;56.420;15.548;2023-03-14T08:13:19;13.57;;;2.70;;
12135;SDS011;6131;56.420;15.548;2023-03-14T08:15:47;11.13;;;2.50;;
12135;SDS011;6131;56.420;15.548;2023-03-14T08:18:14;15.30;;;3.03;;
12135;SDS011;6131;56.420;15.548;2023-03-14T08:20:41;10.17;;;2.80;;
12135;SDS011;6131;56.420;15.548;2023-03-14T08:23:07;11.63;;;2.67;;
12135;SDS011;6131;56.420;15.548;2023-03-14T08:25:33;8.97;;;2.80;;
12135;SDS011;6131;56.420;15.548;2023-03-14T08:27:59;11.80;;;2.60;;
12135;SDS011;6131;56.420;15.548;2023-03-14T08:30:25;14.40;;;2.70;;
12135;SDS011;6131;56.420;15.548;2023-03-14T08:32:51;11.07;;;2.53;;
12135;SDS011;6131;56.420;15.548;2023-03-14T08:35:17;12.50;;;3.00;;
12135;SDS011;6131;56.420;15.548;2023-03-14T08:37:43;10.53;;;2.70;;
12135;SDS011;6131;56.420;15.548;2023-03-14T08:40:10;10.50;;;2.70;;
12135;SDS011;6131;56.420;15.548;2023-03-14T08:42:37;13.10;;;2.83;;
12135;SDS011;6131;56.420;15.548;2023-03-14T08:45:04;9.50;;;2.47;;
12135;SDS011;6131;56.420;15.548;2023-03-14T08:47:30;13.17;;;2.60;;
12135;SDS011;6131;56.420;15.548;2023-03-14T08:49:56;9.23;;;2.90;;
12135;SDS011;6131;56.420;15.548;2023-03-14T08:52:22;12.37;;;2.37;;
12135;SDS011;6131;56.420;15.548;2023-03-14T08:54:48;15.50;;;2.80;;
12135;SDS011;6131;56.420;15.548;2023-03-14T08:57:14;9.97;;;2.70;;
12135;SDS011;6131;56.420;15.548;2023-03-14T08:59:40;7.73;;;2.67;;
12135;SDS011;6131;56.420;15.548;2023-03-14T09:02:08;8.83;;;2.80;;
12135;SDS011;6131;56.420;15.548;2023-03-14T09:04:34;9.53;;;2.50;;
12135;SDS011;6131;56.420;15.548;2023-03-14T09:07:00;10.33;;;2.93;;
12135;SDS011;6131;56.420;15.548;2023-03-14T09:09:26;7.47;;;2.83;;
12135;SDS011;6131;56.420;15.548;2023-03-14T09:11:52;6.53;;;2.30;;
12135;SDS011;6131;56.420;15.548;2023-03-14T09:14:18;8.00;;;3.00;;
12135;SDS011;6131;56.420;15.548;2023-03-14T09:16:44;7.17;;;2.90;;
12135;SDS011;6131;56.420;15.548;2023-03-14T09:19:10;7.47;;;2.67;;
12135;SDS011;6131;56.420;15.548;2023-03-14T09:21:36;11.03;;;2.87;;
12135;SDS011;6131;56.420;15.548;2023-03-14T09:24:04;8.87;;;2.73;;
12135;SDS011;6131;56.420;15.548;2023-03-14T09:26:30;7.93;;;2.80;;
12135;SDS011;6131;56.420;15.548;2023-03-14T09:28:56;8.07;;;2.80;;
12135;SDS011;6131;56.420;15.548;2023-03-14T09:31:22;8.67;;;2.97;;
12135;SDS011;6131;56.420;15.548;2023-03-14T09:33:48;9.17;;;3.20;;
12135;SDS011;6131;56.420;15.548;2023-03-14T09:36:14;7.37;;;3.00;;
12135;SDS011;6131;56.420;15.548;2023-03-14T09:38:40;11.03;;;2.70;;
12135;SDS011;6131;56.420;15.548;2023-03-14T09:41:14;7.23;;;2.90;;
12135;SDS011;6131;56.420;15.548;2023-03-14T09:43:41;7.63;;;3.10;;
12135;SDS011;6131;56.420;15.548;2023-03-14T09:46:08;9.93;;;3.20;;
12135;SDS011;6131;56.420;15.548;2023-03-14T09:48:35;7.40;;;3.00;;
12135;SDS011;6131;56.420;15.548;2023-03-14T09:51:03;9.30;;;3.17;;
12135;SDS011;6131;56.420;15.548;2023-03-14T09:53:39;9.43;;;3.10;;
12135;SDS011;6131;56.420;15.548;2023-03-14T09:56:08;9.57;;;3.37;;
12135;SDS011;6131;56.420;15.548;2023-03-14T09:58:36;9.13;;;3.80;;
12135;SDS011;6131;56.420;15.548;2023-03-14T10:01:04;10.27;;;4.10;;
12135;SDS011;6131;56.420;15.548;2023-03-14T10:03:33;9.23;;;3.67;;
12135;SDS011;6131;56.420;15.548;2023-03-14T10:06:00;7.70;;;3.73;;
12135;SDS011;6131;56.420;15.548;2023-03-14T10:08:26;9.07;;;3.63;;
12135;SDS011;6131;56.420;15.548;2023-03-14T10:10:53;7.27;;;4.00;;
12135;SDS011;6131;56.420;15.548;2023-03-14T10:13:23;9.73;;;3.60;;
12135;SDS011;6131;56.420;15.548;2023-03-14T10:15:52;10.23;;;4.33;;
12135;SDS011;6131;56.420;15.548;2023-03-14T10:18:19;7.53;;;3.67;;
12135;SDS011;6131;56.420;15.548;2023-03-14T10:20:46;8.50;;;4.17;;
12135;SDS011;6131;56.420;15.548;2023-03-14T10:25:39;5.80;;;3.23;;
12135;SDS011;6131;56.420;15.548;2023-03-14T10:28:10;10.90;;;4.33;;
12135;SDS011;6131;56.420;15.548;2023-03-14T10:30:48;7.10;;;3.80;;
12135;SDS011;6131;56.420;15.548;2023-03-14T10:35:40;7.47;;;3.43;;
12135;SDS011;6131;56.420;15.548;2023-03-14T10:38:10;9.20;;;4.30;;
12135;SDS011;6131;56.420;15.548;2023-03-14T10:40:38;6.37;;;3.30;;
12135;SDS011;6131;56.420;15.548;2023-03-14T10:43:05;8.10;;;3.53;;
12135;SDS011;6131;56.420;15.548;2023-03-14T10:50:33;7.70;;;3.50;;
12135;SDS011;6131;56.420;15.548;2023-03-14T10:53:01;5.80;;;2.70;;
12135;SDS011;6131;56.420;15.548;2023-03-14T10:55:39;6.53;;;2.90;;
12135;SDS011;6131;56.420;15.548;2023-03-14T10:58:08;5.90;;;3.00;;
12135;SDS011;6131;56.420;15.548;2023-03-14T11:00:42;5.93;;;2.73;;
12135;SDS011;6131;56.420;15.548;2023-03-14T11:03:11;5.20;;;2.57;;
12135;SDS011;6131;56.420;15.548;2023-03-14T11:11:08;3.77;;;2.07;;
12135;SDS011;6131;56.420;15.548;2023-03-14T11:13:56;5.57;;;2.20;;
12135;SDS011;6131;56.420;15.548;2023-03-14T11:21:45;5.77;;;2.27;;
12135;SDS011;6131;56.420;15.548;2023-03-14T11:24:33;4.50;;;2.17;;
12135;SDS011;6131;56.420;15.548;2023-03-14T11:27:26;5.33;;;2.03;;
12135;SDS011;6131;56.420;15.548;2023-03-14T11:29:57;4.40;;;2.07;;
12135;SDS011;6131;56.420;15.548;2023-03-14T11:34:54;3.23;;;2.00;;
12135;SDS011;6131;56.420;15.548;2023-03-14T11:37:25;4.83;;;2.13;;
12135;SDS011;6131;56.420;15.548;2023-03-14T11:40:00;4.00;;;2.33;;
12135;SDS011;6131;56.420;15.548;2023-03-14T11:42:28;8.67;;;2.43;;
12135;SDS011;6131;56.420;15.548;2023-03-14T11:44:55;4.27;;;2.50;;
12135;SDS011;6131;56.420;15.548;2023-03-14T11:47:26;6.63;;;2.77;;
12135;SDS011;6131;56.420;15.548;2023-03-14T11:50:15;5.33;;;2.63;;
12135;SDS011;6131;56.420;15.548;2023-03-14T11:53:04;5.10;;;2.23;;
12135;SDS011;6131;56.420;15.548;2023-03-14T11:55:30;4.40;;;2.43;;
12135;SDS011;6131;56.420;15.548;2023-03-14T11:58:01;7.07;;;2.50;;
12135;SDS011;6131;56.420;15.548;2023-03-14T12:00:29;9.13;;;2.80;;
12135;SDS011;6131;56.420;15.548;2023-03-14T12:13:04;6.27;;;2.00;;
12135;SDS011;6131;56.420;15.548;2023-03-14T12:15:30;4.30;;;2.40;;
12135;SDS011;6131;56.420;15.548;2023-03-14T12:17:56;7.73;;;2.73;;
12135;SDS011;6131;56.420;15.548;2023-03-14T12:20:23;5.03;;;2.23;;
12135;SDS011;6131;56.420;15.548;2023-03-14T12:22:51;5.83;;;2.37;;
12135;SDS011;6131;56.420;15.548;2023-03-14T12:25:19;5.03;;;2.30;;
12135;SDS011;6131;56.420;15.548;2023-03-14T12:30:55;10.00;;;2.20;;
12135;SDS011;6131;56.420;15.548;2023-03-14T12:35:41;4.70;;;1.87;;
12135;SDS011;6131;56.420;15.548;2023-03-14T12:43:34;6.47;;;2.03;;
12135;SDS011;6131;56.420;15.548;2023-03-14T12:46:24;4.00;;;1.70;;
12135;SDS011;6131;56.420;15.548;2023-03-14T12:51:34;2.93;;;2.00;;
12135;SDS011;6131;56.420;15.548;2023-03-14T12:59:51;3.87;;;1.73;;
12135;SDS011;6131;56.420;15.548;2023-03-14T13:12:38;4.40;;;1.80;;
12135;SDS011;6131;56.420;15.548;2023-03-14T13:15:23;5.10;;;1.93;;
12135;SDS011;6131;56.420;15.548;2023-03-14T13:17:51;6.77;;;2.27;;
12135;SDS011;6131;56.420;15.548;2023-03-14T13:20:20;4.97;;;1.57;;
12135;SDS011;6131;56.420;15.548;2023-03-14T13:22:49;5.67;;;1.10;;
12135;SDS011;6131;56.420;15.548;2023-03-14T13:25:15;4.87;;;1.30;;
12135;SDS011;6131;56.420;15.548;2023-03-14T13:27:46;1.80;;;1.00;;
12135;SDS011;6131;56.420;15.548;2023-03-14T13:32:42;1.10;;;0.60;;
12135;SDS011;6131;56.420;15.548;2023-03-14T13:35:20;1.13;;;0.63;;
12135;SDS011;6131;56.420;15.548;2023-03-14T13:37:47;1.67;;;0.73;;
12135;SDS011;6131;56.420;15.548;2023-03-14T13:40:20;1.90;;;0.77;;
12135;SDS011;6131;56.420;15.548;2023-03-14T13:42:46;1.87;;;1.10;;
12135;SDS011;6131;56.420;15.548;2023-03-14T13:45:13;0.83;;;0.47;;
12135;SDS011;6131;56.420;15.548;2023-03-14T13:47:39;0.50;;;0.40;;
12135;SDS011;6131;56.420;15.548;2023-03-14T13:50:11;0.97;;;0.40;;
12135;SDS011;6131;56.420;15.548;2023-03-14T13:52:38;1.07;;;0.33;;
12135;SDS011;6131;56.420;15.548;2023-03-14T13:55:05;0.40;;;0.23;;
12135;SDS011;6131;56.420;15.548;2023-03-14T13:57:48;0.40;;;0.20;;
12135;SDS011;6131;56.420;15.548;2023-03-14T14:00:20;0.40;;;0.20;;
12135;SDS011;6131;56.420;15.548;2023-03-14T14:02:46;0.40;;;0.20;;
12135;SDS011;6131;56.420;15.548;2023-03-14T14:05:13;1.70;;;0.40;;
12135;SDS011;6131;56.420;15.548;2023-03-14T14:07:40;0.50;;;0.23;;
12135;SDS011;6131;56.420;15.548;2023-03-14T14:10:09;0.40;;;0.17;;
12135;SDS011;6131;56.420;15.548;2023-03-14T14:12:46;0.40;;;0.20;;
12135;SDS011;6131;56.420;15.548;2023-03-14T14:15:20;0.50;;;0.27;;
12135;SDS011;6131;56.420;15.548;2023-03-14T14:17:48;0.40;;;0.20;;
12135;SDS011;6131;56.420;15.548;2023-03-14T14:20:20;0.50;;;0.20;;
12135;SDS011;6131;56.420;15.548;2023-03-14T14:22:47;0.60;;;0.30;;
12135;SDS011;6131;56.420;15.548;2023-03-14T14:25:14;1.63;;;0.27;;
12135;SDS011;6131;56.420;15.548;2023-03-14T14:27:42;3.23;;;0.80;;
12135;SDS011;6131;56.420;15.548;2023-03-14T14:32:43;2.57;;;0.90;;
12135;SDS011;6131;56.420;15.548;2023-03-14T14:35:10;2.00;;;0.80;;
12135;SDS011;6131;56.420;15.548;2023-03-14T14:37:47;3.33;;;0.93;;
12135;SDS011;6131;56.420;15.548;2023-03-14T14:40:19;5.30;;;1.00;;
12135;SDS011;6131;56.420;15.548;2023-03-14T14:42:45;3.40;;;1.00;;
12135;SDS011;6131;56.420;15.548;2023-03-14T14:45:13;2.90;;;0.80;;
12135;SDS011;6131;56.420;15.548;2023-03-14T14:47:47;4.40;;;1.03;;
12135;SDS011;6131;56.420;15.548;2023-03-14T14:53:02;2.47;;;0.80;;
12135;SDS011;6131;56.420;15.548;2023-03-14T14:55:30;5.07;;;1.10;;
12135;SDS011;6131;56.420;15.548;2023-03-14T14:57:57;5.20;;;1.00;;
12135;SDS011;6131;56.420;15.548;2023-03-14T15:00:24;2.60;;;0.97;;
12135;SDS011;6131;56.420;15.548;2023-03-14T15:02:51;4.47;;;0.90;;
12135;SDS011;6131;56.420;15.548;2023-03-14T15:05:18;1.73;;;0.73;;
12135;SDS011;6131;56.420;15.548;2023-03-14T15:07:45;4.67;;;1.20;;
12135;SDS011;6131;56.420;15.548;2023-03-14T15:10:12;5.80;;;1.00;;
12135;SDS011;6131;56.420;15.548;2023-03-14T15:12:38;3.40;;;0.83;;
12135;SDS011;6131;56.420;15.548;2023-03-14T15:15:05;4.80;;;1.30;;
12135;SDS011;6131;56.420;15.548;2023-03-14T15:17:31;4.20;;;1.10;;
12135;SDS011;6131;56.420;15.548;2023-03-14T15:19:57;8.93;;;1.77;;
12135;SDS011;6131;56.420;15.548;2023-03-14T15:22:23;5.83;;;1.40;;
12135;SDS011;6131;56.420;15.548;2023-03-14T15:24:49;4.53;;;1.23;;
12135;SDS011;6131;56.420;15.548;2023-03-14T15:27:16;5.40;;;1.13;;
12135;SDS011;6131;56.420;15.548;2023-03-14T15:29:43;8.27;;;2.27;;
12135;SDS011;6131;56.420;15.548;2023-03-14T15:32:13;6.90;;;1.30;;
12135;SDS011;6131;56.420;15.548;2023-03-14T15:34:39;4.73;;;1.33;;
12135;SDS011;6131;56.420;15.548;2023-03-14T15:37:10;9.07;;;1.90;;
12135;SDS011;6131;56.420;15.548;2023-03-14T15:39:36;7.17;;;1.27;;
12135;SDS011;6131;56.420;15.548;2023-03-14T15:42:02;5.60;;;1.40;;
12135;SDS011;6131;56.420;15.548;2023-03-14T15:44:28;8.43;;;1.50;;
12135;SDS011;6131;56.420;15.548;2023-03-14T15:46:54;5.03;;;1.43;;
12135;SDS011;6131;56.420;15.548;2023-03-14T15:49:20;4.83;;;1.53;;
12135;SDS011;6131;56.420;15.548;2023-03-14T15:51:46;7.13;;;1.33;;
12135;SDS011;6131;56.420;15.548;2023-03-14T15:54:12;7.23;;;1.37;;
12135;SDS011;6131;56.420;15.548;2023-03-14T15:56:38;9.10;;;1.30;;
12135;SDS011;6131;56.420;15.548;2023-03-14T15:59:04;4.93;;;1.53;;
12135;SDS011;6131;56.420;15.548;2023-03-14T16:01:30;6.27;;;1.40;;